sensor_id;sensor_type;location;lat;lon;timestamp;temperature;humidity
27870;DHT22;15225;50.730;4.244;2023-03-23T20:37:09;13.10;1.00
27870;DHT22;15225;50.730;4.244;2023-03-23T20:39:40;12.80;1.00
27870;DHT22;15225;50.730;4.244;2023-03-23T20:42:06;12.90;1.00
27870;DHT22;15225;50.730;4.244;2023-03-23T20:44:32;13.20;1.00
27870;DHT22;15225;50.730;4.244;2023-03-23T20:47:00;13.40;1.00
27870;DHT22;15225;50.730;4.244;2023-03-23T20:49:27;13.60;1.00
27870;DHT22;15225;50.730;4.244;2023-03-23T20:51:54;13.70;1.00
27870;DHT22;15225;50.730;4.244;2023-03-23T20:54:20;13.70;1.00
27870;DHT22;15225;50.730;4.244;2023-03-23T20:56:47;13.60;1.00
27870;DHT22;15225;50.730;4.244;2023-03-23T20:59:14;13.80;1.00
27870;DHT22;15225;50.730;4.244;2023-03-23T21:01:40;13.90;1.00
27870;DHT22;15225;50.730;4.244;2023-03-23T21:04:07;13.80;1.00
27870;DHT22;15225;50.730;4.244;2023-03-23T21:06:39;13.80;1.00
27870;DHT22;15225;50.730;4.244;2023-03-23T21:09:05;13.80;1.00
27870;DHT22;15225;50.730;4.244;2023-03-23T21:11:31;13.90;1.00
27870;DHT22;15225;50.730;4.244;2023-03-23T21:14:00;13.70;1.00
27870;DHT22;15225;50.730;4.244;2023-03-23T21:16:26;13.70;1.00
27870;DHT22;15225;50.730;4.244;2023-03-23T21:18:52;13.70;1.00
27870;DHT22;15225;50.730;4.244;2023-03-23T21:21:17;13.70;1.00
27870;DHT22;15225;50.730;4.244;2023-03-23T21:23:44;13.70;1.00
27870;DHT22;15225;50.730;4.244;2023-03-23T21:26:17;13.70;1.00
27870;DHT22;15225;50.730;4.244;2023-03-23T21:28:44;13.70;1.00
27870;DHT22;15225;50.730;4.244;2023-03-23T21:31:10;13.70;1.00
27870;DHT22;15225;50.730;4.244;2023-03-23T21:33:36;13.60;1.00
27870;DHT22;15225;50.730;4.244;2023-03-23T21:36:02;13.60;1.00
27870;DHT22;15225;50.730;4.244;2023-03-23T21:38:28;13.50;1.00
27870;DHT22;15225;50.730;4.244;2023-03-23T21:40:55;13.40;1.00
27870;DHT22;15225;50.730;4.244;2023-03-23T21:43:22;13.40;1.00
27870;DHT22;15225;50.730;4.244;2023-03-23T21:45:53;13.40;1.00
27870;DHT22;15225;50.730;4.244;2023-03-23T21:48:21;13.40;1.00
27870;DHT22;15225;50.730;4.244;2023-03-23T21:50:47;13.50;1.00
27870;DHT22;15225;50.730;4.244;2023-03-23T21:53:13;13.50;1.00
27870;DHT22;15225;50.730;4.244;2023-03-23T21:55:47;13.60;1.00
27870;DHT22;15225;50.730;4.244;2023-03-23T21:58:20;13.50;1.00
27870;DHT22;15225;50.730;4.244;2023-03-23T22:00:46;13.40;1.00
27870;DHT22;15225;50.730;4.244;2023-03-23T22:03:15;13.40;1.00
27870;DHT22;15225;50.730;4.244;2023-03-23T22:05:44;13.40;1.00
27870;DHT22;15225;50.730;4.244;2023-03-23T22:08:10;13.40;1.00
27870;DHT22;15225;50.730;4.244;2023-03-23T22:10:43;13.40;1.00
27870;DHT22;15225;50.730;4.244;2023-03-23T22:13:08;13.50;1.00
